<?xml version="1.0" encoding="UTF-8" standalone="no" ?>
<gpx xmlns="http://www.topografix.com/GPX/1/1" xmlns:xsi="http://www.w3.org/2001/XMLSchema-instance" xsi:schemaLocation="http://www.topografix.com/GPX/1/1 http://www.topografix.com/GPX/1/1/gpx.xsd" version="1.1" creator="VisuGPX - https://www.visugpx.com">
  <metadata>
    <name>DT 01 - Pomayrols</name>
  </metadata>
  <trk>
    <name><![CDATA[DT n°01 - Les contreforts de l'Aubrac]]></name>
    <trkseg>
      <trkpt lat="44.47425" lon="3.02091">
        <ele>439</ele>
        <time>2020-05-25T10:18:57Z</time>
      </trkpt>
      <trkpt lat="44.47434" lon="3.02098">
        <ele>447.1</ele>
        <time>2020-05-25T10:19:07Z</time>
      </trkpt>
      <trkpt lat="44.47452" lon="3.02102">
        <ele>441</ele>
        <time>2020-05-25T10:19:17Z</time>
      </trkpt>
      <trkpt lat="44.47462" lon="3.02099">
        <ele>449.7</ele>
        <time>2020-05-25T10:19:27Z</time>
      </trkpt>
      <trkpt lat="44.47471" lon="3.02096">
        <ele>441</ele>
        <time>2020-05-25T10:19:37Z</time>
      </trkpt>
      <trkpt lat="44.47481" lon="3.02093">
        <ele>452.6</ele>
        <time>2020-05-25T10:19:47Z</time>
      </trkpt>
      <trkpt lat="44.47491" lon="3.02089">
        <ele>447</ele>
        <time>2020-05-25T10:19:57Z</time>
      </trkpt>
      <trkpt lat="44.47502" lon="3.02087">
        <ele>454.1</ele>
        <time>2020-05-25T10:20:07Z</time>
      </trkpt>
      <trkpt lat="44.47539" lon="3.02089">
        <ele>453</ele>
        <time>2020-05-25T10:20:17Z</time>
      </trkpt>
      <trkpt lat="44.47549" lon="3.02095">
        <ele>460</ele>
        <time>2020-05-25T10:20:27Z</time>
      </trkpt>
      <trkpt lat="44.47566" lon="3.02108">
        <ele>464</ele>
        <time>2020-05-25T10:20:37Z</time>
      </trkpt>
      <trkpt lat="44.47585" lon="3.02118">
        <ele>479</ele>
        <time>2020-05-25T10:20:47Z</time>
      </trkpt>
      <trkpt lat="44.47592" lon="3.02125">
        <ele>464.2</ele>
        <time>2020-05-25T10:20:57Z</time>
      </trkpt>
      <trkpt lat="44.4761" lon="3.02136">
        <ele>481</ele>
        <time>2020-05-25T10:21:07Z</time>
      </trkpt>
      <trkpt lat="44.47625" lon="3.02152">
        <ele>468.8</ele>
        <time>2020-05-25T10:21:17Z</time>
      </trkpt>
      <trkpt lat="44.47631" lon="3.02161">
        <ele>484</ele>
        <time>2020-05-25T10:21:27Z</time>
      </trkpt>
      <trkpt lat="44.47646" lon="3.02176">
        <ele>470.6</ele>
        <time>2020-05-25T10:21:37Z</time>
      </trkpt>
      <trkpt lat="44.47656" lon="3.02182">
        <ele>484</ele>
        <time>2020-05-25T10:21:47Z</time>
      </trkpt>
      <trkpt lat="44.47664" lon="3.02189">
        <ele>474</ele>
        <time>2020-05-25T10:21:57Z</time>
      </trkpt>
      <trkpt lat="44.47672" lon="3.02197">
        <ele>475.5</ele>
        <time>2020-05-25T10:22:07Z</time>
      </trkpt>
      <trkpt lat="44.47678" lon="3.02207">
        <ele>485</ele>
        <time>2020-05-25T10:22:17Z</time>
      </trkpt>
      <trkpt lat="44.47691" lon="3.0223">
        <ele>482</ele>
        <time>2020-05-25T10:22:27Z</time>
      </trkpt>
      <trkpt lat="44.47695" lon="3.02243">
        <ele>472.6</ele>
        <time>2020-05-25T10:22:37Z</time>
      </trkpt>
      <trkpt lat="44.47704" lon="3.02251">
        <ele>487</ele>
        <time>2020-05-25T10:22:47Z</time>
      </trkpt>
      <trkpt lat="44.4771" lon="3.02262">
        <ele>476.5</ele>
        <time>2020-05-25T10:22:57Z</time>
      </trkpt>
      <trkpt lat="44.47715" lon="3.02273">
        <ele>478</ele>
        <time>2020-05-25T10:23:07Z</time>
      </trkpt>
      <trkpt lat="44.47717" lon="3.0226">
        <ele>487</ele>
        <time>2020-05-25T10:23:17Z</time>
      </trkpt>
      <trkpt lat="44.47715" lon="3.02247">
        <ele>482.1</ele>
        <time>2020-05-25T10:23:27Z</time>
      </trkpt>
      <trkpt lat="44.47707" lon="3.02234">
        <ele>487</ele>
        <time>2020-05-25T10:23:37Z</time>
      </trkpt>
      <trkpt lat="44.47702" lon="3.02218">
        <ele>484.7</ele>
        <time>2020-05-25T10:23:47Z</time>
      </trkpt>
      <trkpt lat="44.47697" lon="3.02207">
        <ele>496</ele>
        <time>2020-05-25T10:23:57Z</time>
      </trkpt>
      <trkpt lat="44.47689" lon="3.02193">
        <ele>487.2</ele>
        <time>2020-05-25T10:24:07Z</time>
      </trkpt>
      <trkpt lat="44.47675" lon="3.02156">
        <ele>498</ele>
        <time>2020-05-25T10:24:17Z</time>
      </trkpt>
      <trkpt lat="44.47665" lon="3.02139">
        <ele>495.1</ele>
        <time>2020-05-25T10:24:27Z</time>
      </trkpt>
      <trkpt lat="44.47655" lon="3.02126">
        <ele>501</ele>
        <time>2020-05-25T10:24:37Z</time>
      </trkpt>
      <trkpt lat="44.47642" lon="3.02103">
        <ele>501</ele>
        <time>2020-05-25T10:24:47Z</time>
      </trkpt>
      <trkpt lat="44.47636" lon="3.02091">
        <ele>498.9</ele>
        <time>2020-05-25T10:24:57Z</time>
      </trkpt>
      <trkpt lat="44.47628" lon="3.0208">
        <ele>493</ele>
        <time>2020-05-25T10:25:07Z</time>
      </trkpt>
      <trkpt lat="44.47622" lon="3.0207">
        <ele>500</ele>
        <time>2020-05-25T10:25:17Z</time>
      </trkpt>
      <trkpt lat="44.4762" lon="3.02055">
        <ele>492</ele>
        <time>2020-05-25T10:25:27Z</time>
      </trkpt>
      <trkpt lat="44.47623" lon="3.02038">
        <ele>503.6</ele>
        <time>2020-05-25T10:25:37Z</time>
      </trkpt>
      <trkpt lat="44.47629" lon="3.02025">
        <ele>489</ele>
        <time>2020-05-25T10:25:47Z</time>
      </trkpt>
      <trkpt lat="44.47647" lon="3.02008">
        <ele>492</ele>
        <time>2020-05-25T10:25:57Z</time>
      </trkpt>
      <trkpt lat="44.4766" lon="3.01992">
        <ele>505.9</ele>
        <time>2020-05-25T10:26:07Z</time>
      </trkpt>
      <trkpt lat="44.4767" lon="3.01985">
        <ele>495</ele>
        <time>2020-05-25T10:26:17Z</time>
      </trkpt>
      <trkpt lat="44.47678" lon="3.01976">
        <ele>509.4</ele>
        <time>2020-05-25T10:26:27Z</time>
      </trkpt>
      <trkpt lat="44.47705" lon="3.01942">
        <ele>503</ele>
        <time>2020-05-25T10:26:37Z</time>
      </trkpt>
      <trkpt lat="44.4771" lon="3.0193">
        <ele>515.7</ele>
        <time>2020-05-25T10:26:47Z</time>
      </trkpt>
      <trkpt lat="44.47716" lon="3.01919">
        <ele>515</ele>
        <time>2020-05-25T10:26:57Z</time>
      </trkpt>
      <trkpt lat="44.47726" lon="3.01899">
        <ele>517.8</ele>
        <time>2020-05-25T10:27:07Z</time>
      </trkpt>
      <trkpt lat="44.4773" lon="3.01887">
        <ele>515</ele>
        <time>2020-05-25T10:27:17Z</time>
      </trkpt>
      <trkpt lat="44.47737" lon="3.01894">
        <ele>522.1</ele>
        <time>2020-05-25T10:27:27Z</time>
      </trkpt>
      <trkpt lat="44.47738" lon="3.01909">
        <ele>524.8</ele>
        <time>2020-05-25T10:27:37Z</time>
      </trkpt>
      <trkpt lat="44.47736" lon="3.01926">
        <ele>515</ele>
        <time>2020-05-25T10:27:47Z</time>
      </trkpt>
      <trkpt lat="44.47734" lon="3.01938">
        <ele>530.1</ele>
        <time>2020-05-25T10:27:57Z</time>
      </trkpt>
      <trkpt lat="44.47716" lon="3.01975">
        <ele>522</ele>
        <time>2020-05-25T10:28:07Z</time>
      </trkpt>
      <trkpt lat="44.47714" lon="3.01988">
        <ele>535</ele>
        <time>2020-05-25T10:28:17Z</time>
      </trkpt>
      <trkpt lat="44.47715" lon="3.02006">
        <ele>526</ele>
        <time>2020-05-25T10:28:27Z</time>
      </trkpt>
      <trkpt lat="44.47712" lon="3.02019">
        <ele>541.5</ele>
        <time>2020-05-25T10:28:37Z</time>
      </trkpt>
      <trkpt lat="44.47715" lon="3.02032">
        <ele>544.1</ele>
        <time>2020-05-25T10:28:47Z</time>
      </trkpt>
      <trkpt lat="44.47721" lon="3.02042">
        <ele>527</ele>
        <time>2020-05-25T10:28:57Z</time>
      </trkpt>
      <trkpt lat="44.47727" lon="3.02054">
        <ele>546.7</ele>
        <time>2020-05-25T10:29:07Z</time>
      </trkpt>
      <trkpt lat="44.47734" lon="3.02063">
        <ele>529</ele>
        <time>2020-05-25T10:29:17Z</time>
      </trkpt>
      <trkpt lat="44.47748" lon="3.02081">
        <ele>550.5</ele>
        <time>2020-05-25T10:29:27Z</time>
      </trkpt>
      <trkpt lat="44.47756" lon="3.0209">
        <ele>546</ele>
        <time>2020-05-25T10:29:37Z</time>
      </trkpt>
      <trkpt lat="44.47762" lon="3.02099">
        <ele>552.6</ele>
        <time>2020-05-25T10:29:47Z</time>
      </trkpt>
      <trkpt lat="44.47792" lon="3.02135">
        <ele>553</ele>
        <time>2020-05-25T10:29:57Z</time>
      </trkpt>
      <trkpt lat="44.47805" lon="3.02156">
        <ele>582</ele>
        <time>2020-05-25T10:30:07Z</time>
      </trkpt>
      <trkpt lat="44.47814" lon="3.02179">
        <ele>568.8</ele>
        <time>2020-05-25T10:30:17Z</time>
      </trkpt>
      <trkpt lat="44.47826" lon="3.02198">
        <ele>580</ele>
        <time>2020-05-25T10:30:27Z</time>
      </trkpt>
      <trkpt lat="44.47839" lon="3.02214">
        <ele>575</ele>
        <time>2020-05-25T10:30:37Z</time>
      </trkpt>
      <trkpt lat="44.47846" lon="3.02224">
        <ele>581</ele>
        <time>2020-05-25T10:30:47Z</time>
      </trkpt>
      <trkpt lat="44.47853" lon="3.02233">
        <ele>576.7</ele>
        <time>2020-05-25T10:30:57Z</time>
      </trkpt>
      <trkpt lat="44.47878" lon="3.02252">
        <ele>583</ele>
        <time>2020-05-25T10:31:07Z</time>
      </trkpt>
      <trkpt lat="44.47887" lon="3.02258">
        <ele>582</ele>
        <time>2020-05-25T10:31:17Z</time>
      </trkpt>
      <trkpt lat="44.47897" lon="3.02256">
        <ele>584.3</ele>
        <time>2020-05-25T10:31:27Z</time>
      </trkpt>
      <trkpt lat="44.47893" lon="3.02244">
        <ele>591</ele>
        <time>2020-05-25T10:31:37Z</time>
      </trkpt>
      <trkpt lat="44.47884" lon="3.02234">
        <ele>587.7</ele>
        <time>2020-05-25T10:31:47Z</time>
      </trkpt>
      <trkpt lat="44.47876" lon="3.02221">
        <ele>593</ele>
        <time>2020-05-25T10:31:57Z</time>
      </trkpt>
      <trkpt lat="44.47892" lon="3.0222">
        <ele>594.3</ele>
        <time>2020-05-25T10:32:07Z</time>
      </trkpt>
      <trkpt lat="44.47901" lon="3.02223">
        <ele>603</ele>
        <time>2020-05-25T10:32:17Z</time>
      </trkpt>
      <trkpt lat="44.47913" lon="3.02222">
        <ele>597.4</ele>
        <time>2020-05-25T10:32:27Z</time>
      </trkpt>
      <trkpt lat="44.47925" lon="3.02222">
        <ele>604</ele>
        <time>2020-05-25T10:32:37Z</time>
      </trkpt>
      <trkpt lat="44.47937" lon="3.02224">
        <ele>601.1</ele>
        <time>2020-05-25T10:32:47Z</time>
      </trkpt>
      <trkpt lat="44.47946" lon="3.02229">
        <ele>605</ele>
        <time>2020-05-25T10:32:57Z</time>
      </trkpt>
      <trkpt lat="44.47962" lon="3.02242">
        <ele>601.9</ele>
        <time>2020-05-25T10:33:07Z</time>
      </trkpt>
      <trkpt lat="44.47982" lon="3.02256">
        <ele>606</ele>
        <time>2020-05-25T10:33:17Z</time>
      </trkpt>
      <trkpt lat="44.47992" lon="3.0226">
        <ele>607.1</ele>
        <time>2020-05-25T10:33:27Z</time>
      </trkpt>
      <trkpt lat="44.48009" lon="3.02271">
        <ele>611</ele>
        <time>2020-05-25T10:33:37Z</time>
      </trkpt>
      <trkpt lat="44.48019" lon="3.02275">
        <ele>612.8</ele>
        <time>2020-05-25T10:33:47Z</time>
      </trkpt>
      <trkpt lat="44.48028" lon="3.02283">
        <ele>616</ele>
        <time>2020-05-25T10:33:57Z</time>
      </trkpt>
      <trkpt lat="44.48056" lon="3.02297">
        <ele>617</ele>
        <time>2020-05-25T10:34:07Z</time>
      </trkpt>
      <trkpt lat="44.48066" lon="3.023">
        <ele>618.4</ele>
        <time>2020-05-25T10:34:17Z</time>
      </trkpt>
      <trkpt lat="44.48085" lon="3.02312">
        <ele>619</ele>
        <time>2020-05-25T10:34:27Z</time>
      </trkpt>
      <trkpt lat="44.48095" lon="3.02314">
        <ele>619.4</ele>
        <time>2020-05-25T10:34:37Z</time>
      </trkpt>
      <trkpt lat="44.48114" lon="3.02319">
        <ele>627</ele>
        <time>2020-05-25T10:34:47Z</time>
      </trkpt>
      <trkpt lat="44.48127" lon="3.0232">
        <ele>621.9</ele>
        <time>2020-05-25T10:34:57Z</time>
      </trkpt>
      <trkpt lat="44.4814" lon="3.02317">
        <ele>629</ele>
        <time>2020-05-25T10:35:07Z</time>
      </trkpt>
      <trkpt lat="44.48152" lon="3.02311">
        <ele>627.7</ele>
        <time>2020-05-25T10:35:17Z</time>
      </trkpt>
      <trkpt lat="44.48168" lon="3.02314">
        <ele>632</ele>
        <time>2020-05-25T10:35:27Z</time>
      </trkpt>
      <trkpt lat="44.48177" lon="3.02311">
        <ele>631.8</ele>
        <time>2020-05-25T10:35:37Z</time>
      </trkpt>
      <trkpt lat="44.48191" lon="3.02319">
        <ele>633</ele>
        <time>2020-05-25T10:35:47Z</time>
      </trkpt>
      <trkpt lat="44.48201" lon="3.02323">
        <ele>631.5</ele>
        <time>2020-05-25T10:35:57Z</time>
      </trkpt>
      <trkpt lat="44.48209" lon="3.02331">
        <ele>630.9</ele>
        <time>2020-05-25T10:36:07Z</time>
      </trkpt>
      <trkpt lat="44.48217" lon="3.02341">
        <ele>630</ele>
        <time>2020-05-25T10:36:17Z</time>
      </trkpt>
      <trkpt lat="44.48226" lon="3.02352">
        <ele>629.1</ele>
        <time>2020-05-25T10:36:27Z</time>
      </trkpt>
      <trkpt lat="44.48242" lon="3.02363">
        <ele>628</ele>
        <time>2020-05-25T10:36:37Z</time>
      </trkpt>
      <trkpt lat="44.48257" lon="3.02366">
        <ele>627.4</ele>
        <time>2020-05-25T10:36:47Z</time>
      </trkpt>
      <trkpt lat="44.48267" lon="3.02364">
        <ele>628</ele>
        <time>2020-05-25T10:36:57Z</time>
      </trkpt>
      <trkpt lat="44.48278" lon="3.02359">
        <ele>628.5</ele>
        <time>2020-05-25T10:37:07Z</time>
      </trkpt>
      <trkpt lat="44.4829" lon="3.02358">
        <ele>629</ele>
        <time>2020-05-25T10:37:17Z</time>
      </trkpt>
      <trkpt lat="44.48301" lon="3.0237">
        <ele>626</ele>
        <time>2020-05-25T10:37:27Z</time>
      </trkpt>
      <trkpt lat="44.48309" lon="3.02374">
        <ele>631</ele>
        <time>2020-05-25T10:37:37Z</time>
      </trkpt>
      <trkpt lat="44.48328" lon="3.02389">
        <ele>632</ele>
        <time>2020-05-25T10:37:47Z</time>
      </trkpt>
      <trkpt lat="44.48335" lon="3.02398">
        <ele>626.8</ele>
        <time>2020-05-25T10:37:57Z</time>
      </trkpt>
      <trkpt lat="44.48344" lon="3.02408">
        <ele>632</ele>
        <time>2020-05-25T10:38:07Z</time>
      </trkpt>
      <trkpt lat="44.4835" lon="3.02392">
        <ele>632.2</ele>
        <time>2020-05-25T10:38:17Z</time>
      </trkpt>
      <trkpt lat="44.48347" lon="3.02376">
        <ele>641</ele>
        <time>2020-05-25T10:38:27Z</time>
      </trkpt>
      <trkpt lat="44.48344" lon="3.02361">
        <ele>636.5</ele>
        <time>2020-05-25T10:38:37Z</time>
      </trkpt>
      <trkpt lat="44.48338" lon="3.02345">
        <ele>650</ele>
        <time>2020-05-25T10:38:47Z</time>
      </trkpt>
      <trkpt lat="44.4833" lon="3.02333">
        <ele>639.6</ele>
        <time>2020-05-25T10:38:57Z</time>
      </trkpt>
      <trkpt lat="44.48321" lon="3.02326">
        <ele>650</ele>
        <time>2020-05-25T10:39:07Z</time>
      </trkpt>
      <trkpt lat="44.48313" lon="3.02318">
        <ele>641.9</ele>
        <time>2020-05-25T10:39:17Z</time>
      </trkpt>
      <trkpt lat="44.48306" lon="3.0231">
        <ele>643.6</ele>
        <time>2020-05-25T10:39:27Z</time>
      </trkpt>
      <trkpt lat="44.48294" lon="3.02296">
        <ele>659</ele>
        <time>2020-05-25T10:39:37Z</time>
      </trkpt>
      <trkpt lat="44.48289" lon="3.02285">
        <ele>649.3</ele>
        <time>2020-05-25T10:39:47Z</time>
      </trkpt>
      <trkpt lat="44.48284" lon="3.02273">
        <ele>659</ele>
        <time>2020-05-25T10:39:57Z</time>
      </trkpt>
      <trkpt lat="44.48274" lon="3.02258">
        <ele>656.8</ele>
        <time>2020-05-25T10:40:07Z</time>
      </trkpt>
      <trkpt lat="44.48262" lon="3.02253">
        <ele>660</ele>
        <time>2020-05-25T10:40:17Z</time>
      </trkpt>
      <trkpt lat="44.48251" lon="3.02245">
        <ele>659.1</ele>
        <time>2020-05-25T10:40:27Z</time>
      </trkpt>
      <trkpt lat="44.48238" lon="3.02238">
        <ele>662</ele>
        <time>2020-05-25T10:40:37Z</time>
      </trkpt>
      <trkpt lat="44.48228" lon="3.02233">
        <ele>663.6</ele>
        <time>2020-05-25T10:40:47Z</time>
      </trkpt>
      <trkpt lat="44.48218" lon="3.02221">
        <ele>662</ele>
        <time>2020-05-25T10:40:57Z</time>
      </trkpt>
      <trkpt lat="44.48216" lon="3.02207">
        <ele>668.8</ele>
        <time>2020-05-25T10:41:07Z</time>
      </trkpt>
      <trkpt lat="44.48223" lon="3.02193">
        <ele>667</ele>
        <time>2020-05-25T10:41:17Z</time>
      </trkpt>
      <trkpt lat="44.48228" lon="3.02176">
        <ele>675.3</ele>
        <time>2020-05-25T10:41:27Z</time>
      </trkpt>
      <trkpt lat="44.48236" lon="3.02167">
        <ele>668</ele>
        <time>2020-05-25T10:41:37Z</time>
      </trkpt>
      <trkpt lat="44.48241" lon="3.02155">
        <ele>678.9</ele>
        <time>2020-05-25T10:41:47Z</time>
      </trkpt>
      <trkpt lat="44.48249" lon="3.02142">
        <ele>676</ele>
        <time>2020-05-25T10:41:57Z</time>
      </trkpt>
      <trkpt lat="44.4826" lon="3.02135">
        <ele>682.9</ele>
        <time>2020-05-25T10:42:07Z</time>
      </trkpt>
      <trkpt lat="44.48268" lon="3.02139">
        <ele>676</ele>
        <time>2020-05-25T10:42:17Z</time>
      </trkpt>
      <trkpt lat="44.48278" lon="3.02143">
        <ele>684.4</ele>
        <time>2020-05-25T10:42:27Z</time>
      </trkpt>
      <trkpt lat="44.48287" lon="3.02132">
        <ele>685</ele>
        <time>2020-05-25T10:42:37Z</time>
      </trkpt>
      <trkpt lat="44.48285" lon="3.0211">
        <ele>689.8</ele>
        <time>2020-05-25T10:42:47Z</time>
      </trkpt>
      <trkpt lat="44.48278" lon="3.021">
        <ele>692</ele>
        <time>2020-05-25T10:42:57Z</time>
      </trkpt>
      <trkpt lat="44.48274" lon="3.02089">
        <ele>692</ele>
        <time>2020-05-25T10:43:07Z</time>
      </trkpt>
      <trkpt lat="44.48262" lon="3.02062">
        <ele>708</ele>
        <time>2020-05-25T10:43:17Z</time>
      </trkpt>
      <trkpt lat="44.48259" lon="3.0205">
        <ele>696.8</ele>
        <time>2020-05-25T10:43:27Z</time>
      </trkpt>
      <trkpt lat="44.4825" lon="3.02037">
        <ele>708</ele>
        <time>2020-05-25T10:43:37Z</time>
      </trkpt>
      <trkpt lat="44.48239" lon="3.0203">
        <ele>696.7</ele>
        <time>2020-05-25T10:43:47Z</time>
      </trkpt>
      <trkpt lat="44.48228" lon="3.0202">
        <ele>708</ele>
        <time>2020-05-25T10:43:57Z</time>
      </trkpt>
      <trkpt lat="44.48217" lon="3.02014">
        <ele>698.1</ele>
        <time>2020-05-25T10:44:07Z</time>
      </trkpt>
      <trkpt lat="44.48205" lon="3.02011">
        <ele>704</ele>
        <time>2020-05-25T10:44:17Z</time>
      </trkpt>
      <trkpt lat="44.48186" lon="3.01993">
        <ele>704</ele>
        <time>2020-05-25T10:44:27Z</time>
      </trkpt>
      <trkpt lat="44.48169" lon="3.01981">
        <ele>705</ele>
        <time>2020-05-25T10:44:37Z</time>
      </trkpt>
      <trkpt lat="44.48158" lon="3.01976">
        <ele>704.7</ele>
        <time>2020-05-25T10:44:47Z</time>
      </trkpt>
      <trkpt lat="44.48149" lon="3.01969">
        <ele>705</ele>
        <time>2020-05-25T10:44:57Z</time>
      </trkpt>
      <trkpt lat="44.48136" lon="3.01958">
        <ele>709.4</ele>
        <time>2020-05-25T10:45:07Z</time>
      </trkpt>
      <trkpt lat="44.48119" lon="3.0194">
        <ele>710</ele>
        <time>2020-05-25T10:45:17Z</time>
      </trkpt>
      <trkpt lat="44.48112" lon="3.01929">
        <ele>714.2</ele>
        <time>2020-05-25T10:45:27Z</time>
      </trkpt>
      <trkpt lat="44.48106" lon="3.01917">
        <ele>710</ele>
        <time>2020-05-25T10:45:37Z</time>
      </trkpt>
      <trkpt lat="44.48103" lon="3.01901">
        <ele>718.3</ele>
        <time>2020-05-25T10:45:47Z</time>
      </trkpt>
      <trkpt lat="44.48109" lon="3.01891">
        <ele>716</ele>
        <time>2020-05-25T10:45:57Z</time>
      </trkpt>
      <trkpt lat="44.48129" lon="3.01882">
        <ele>716</ele>
        <time>2020-05-25T10:46:07Z</time>
      </trkpt>
      <trkpt lat="44.48151" lon="3.01868">
        <ele>730</ele>
        <time>2020-05-25T10:46:17Z</time>
      </trkpt>
      <trkpt lat="44.4816" lon="3.0186">
        <ele>737.6</ele>
        <time>2020-05-25T10:46:27Z</time>
      </trkpt>
      <trkpt lat="44.48165" lon="3.01852">
        <ele>739.3</ele>
        <time>2020-05-25T10:46:37Z</time>
      </trkpt>
      <trkpt lat="44.48179" lon="3.01842">
        <ele>733</ele>
        <time>2020-05-25T10:46:47Z</time>
      </trkpt>
      <trkpt lat="44.48202" lon="3.01824">
        <ele>738</ele>
        <time>2020-05-25T10:46:57Z</time>
      </trkpt>
      <trkpt lat="44.48212" lon="3.01816">
        <ele>752</ele>
        <time>2020-05-25T10:47:07Z</time>
      </trkpt>
      <trkpt lat="44.48212" lon="3.01801">
        <ele>741</ele>
        <time>2020-05-25T10:47:17Z</time>
      </trkpt>
      <trkpt lat="44.48215" lon="3.01777">
        <ele>756.9</ele>
        <time>2020-05-25T10:47:27Z</time>
      </trkpt>
      <trkpt lat="44.48217" lon="3.01767">
        <ele>744</ele>
        <time>2020-05-25T10:47:37Z</time>
      </trkpt>
      <trkpt lat="44.48238" lon="3.018">
        <ele>749</ele>
        <time>2020-05-25T10:47:47Z</time>
      </trkpt>
      <trkpt lat="44.48247" lon="3.01807">
        <ele>762.1</ele>
        <time>2020-05-25T10:47:57Z</time>
      </trkpt>
      <trkpt lat="44.48258" lon="3.01814">
        <ele>756</ele>
        <time>2020-05-25T10:48:07Z</time>
      </trkpt>
      <trkpt lat="44.48267" lon="3.01822">
        <ele>764.6</ele>
        <time>2020-05-25T10:48:17Z</time>
      </trkpt>
      <trkpt lat="44.48278" lon="3.01829">
        <ele>762</ele>
        <time>2020-05-25T10:48:27Z</time>
      </trkpt>
      <trkpt lat="44.48289" lon="3.01836">
        <ele>766.4</ele>
        <time>2020-05-25T10:48:37Z</time>
      </trkpt>
      <trkpt lat="44.48301" lon="3.01838">
        <ele>764</ele>
        <time>2020-05-25T10:48:47Z</time>
      </trkpt>
      <trkpt lat="44.48322" lon="3.01845">
        <ele>766</ele>
        <time>2020-05-25T10:48:57Z</time>
      </trkpt>
      <trkpt lat="44.48343" lon="3.01851">
        <ele>769</ele>
        <time>2020-05-25T10:49:07Z</time>
      </trkpt>
      <trkpt lat="44.48355" lon="3.01852">
        <ele>773.5</ele>
        <time>2020-05-25T10:49:17Z</time>
      </trkpt>
      <trkpt lat="44.48375" lon="3.01857">
        <ele>776</ele>
        <time>2020-05-25T10:49:27Z</time>
      </trkpt>
      <trkpt lat="44.48384" lon="3.01858">
        <ele>775.6</ele>
        <time>2020-05-25T10:49:37Z</time>
      </trkpt>
      <trkpt lat="44.48414" lon="3.01862">
        <ele>789</ele>
        <time>2020-05-25T10:49:47Z</time>
      </trkpt>
      <trkpt lat="44.48423" lon="3.01865">
        <ele>780.2</ele>
        <time>2020-05-25T10:49:57Z</time>
      </trkpt>
      <trkpt lat="44.48439" lon="3.01879">
        <ele>789</ele>
        <time>2020-05-25T10:50:07Z</time>
      </trkpt>
      <trkpt lat="44.48449" lon="3.01884">
        <ele>780.4</ele>
        <time>2020-05-25T10:50:17Z</time>
      </trkpt>
      <trkpt lat="44.48465" lon="3.01898">
        <ele>798</ele>
        <time>2020-05-25T10:50:27Z</time>
      </trkpt>
      <trkpt lat="44.48481" lon="3.0191">
        <ele>783.2</ele>
        <time>2020-05-25T10:50:37Z</time>
      </trkpt>
      <trkpt lat="44.48498" lon="3.01929">
        <ele>794</ele>
        <time>2020-05-25T10:50:47Z</time>
      </trkpt>
      <trkpt lat="44.48517" lon="3.01951">
        <ele>791</ele>
        <time>2020-05-25T10:50:57Z</time>
      </trkpt>
      <trkpt lat="44.48537" lon="3.01973">
        <ele>787</ele>
        <time>2020-05-25T10:51:07Z</time>
      </trkpt>
      <trkpt lat="44.48546" lon="3.01981">
        <ele>789.1</ele>
        <time>2020-05-25T10:51:17Z</time>
      </trkpt>
      <trkpt lat="44.48564" lon="3.01991">
        <ele>787</ele>
        <time>2020-05-25T10:51:27Z</time>
      </trkpt>
      <trkpt lat="44.48576" lon="3.01994">
        <ele>792.8</ele>
        <time>2020-05-25T10:51:37Z</time>
      </trkpt>
      <trkpt lat="44.48611" lon="3.02009">
        <ele>803</ele>
        <time>2020-05-25T10:51:47Z</time>
      </trkpt>
      <trkpt lat="44.48632" lon="3.02018">
        <ele>803</ele>
        <time>2020-05-25T10:51:57Z</time>
      </trkpt>
      <trkpt lat="44.48653" lon="3.02031">
        <ele>803</ele>
        <time>2020-05-25T10:52:07Z</time>
      </trkpt>
      <trkpt lat="44.48664" lon="3.02037">
        <ele>800.5</ele>
        <time>2020-05-25T10:52:17Z</time>
      </trkpt>
      <trkpt lat="44.48682" lon="3.02051">
        <ele>804</ele>
        <time>2020-05-25T10:52:27Z</time>
      </trkpt>
      <trkpt lat="44.4869" lon="3.0206">
        <ele>802.7</ele>
        <time>2020-05-25T10:52:37Z</time>
      </trkpt>
      <trkpt lat="44.48708" lon="3.02073">
        <ele>804</ele>
        <time>2020-05-25T10:52:47Z</time>
      </trkpt>
      <trkpt lat="44.48715" lon="3.02081">
        <ele>805</ele>
        <time>2020-05-25T10:52:57Z</time>
      </trkpt>
      <trkpt lat="44.48741" lon="3.02105">
        <ele>813</ele>
        <time>2020-05-25T10:53:07Z</time>
      </trkpt>
      <trkpt lat="44.48751" lon="3.0211">
        <ele>808.3</ele>
        <time>2020-05-25T10:53:17Z</time>
      </trkpt>
      <trkpt lat="44.48762" lon="3.02116">
        <ele>813</ele>
        <time>2020-05-25T10:53:27Z</time>
      </trkpt>
      <trkpt lat="44.48774" lon="3.02119">
        <ele>809.8</ele>
        <time>2020-05-25T10:53:37Z</time>
      </trkpt>
      <trkpt lat="44.48787" lon="3.02122">
        <ele>817</ele>
        <time>2020-05-25T10:53:47Z</time>
      </trkpt>
      <trkpt lat="44.48796" lon="3.02121">
        <ele>811.6</ele>
        <time>2020-05-25T10:53:57Z</time>
      </trkpt>
      <trkpt lat="44.4883" lon="3.02114">
        <ele>818</ele>
        <time>2020-05-25T10:54:07Z</time>
      </trkpt>
      <trkpt lat="44.48841" lon="3.02108">
        <ele>816</ele>
        <time>2020-05-25T10:54:17Z</time>
      </trkpt>
      <trkpt lat="44.48852" lon="3.02103">
        <ele>824</ele>
        <time>2020-05-25T10:54:27Z</time>
      </trkpt>
      <trkpt lat="44.48861" lon="3.02101">
        <ele>818.2</ele>
        <time>2020-05-25T10:54:37Z</time>
      </trkpt>
      <trkpt lat="44.48885" lon="3.02101">
        <ele>831</ele>
        <time>2020-05-25T10:54:47Z</time>
      </trkpt>
      <trkpt lat="44.48894" lon="3.02104">
        <ele>820.8</ele>
        <time>2020-05-25T10:54:57Z</time>
      </trkpt>
      <trkpt lat="44.48903" lon="3.02109">
        <ele>831</ele>
        <time>2020-05-25T10:55:07Z</time>
      </trkpt>
      <trkpt lat="44.48899" lon="3.02091">
        <ele>825.3</ele>
        <time>2020-05-25T10:55:17Z</time>
      </trkpt>
      <trkpt lat="44.48886" lon="3.02074">
        <ele>833</ele>
        <time>2020-05-25T10:55:27Z</time>
      </trkpt>
      <trkpt lat="44.4887" lon="3.02056">
        <ele>830</ele>
        <time>2020-05-25T10:55:37Z</time>
      </trkpt>
      <trkpt lat="44.48854" lon="3.02043">
        <ele>829.2</ele>
        <time>2020-05-25T10:55:47Z</time>
      </trkpt>
      <trkpt lat="44.48843" lon="3.02036">
        <ele>832</ele>
        <time>2020-05-25T10:55:57Z</time>
      </trkpt>
      <trkpt lat="44.48822" lon="3.02019">
        <ele>828</ele>
        <time>2020-05-25T10:56:07Z</time>
      </trkpt>
      <trkpt lat="44.48817" lon="3.02006">
        <ele>832.2</ele>
        <time>2020-05-25T10:56:17Z</time>
      </trkpt>
      <trkpt lat="44.48806" lon="3.01996">
        <ele>828</ele>
        <time>2020-05-25T10:56:27Z</time>
      </trkpt>
      <trkpt lat="44.48801" lon="3.01985">
        <ele>834.7</ele>
        <time>2020-05-25T10:56:37Z</time>
      </trkpt>
      <trkpt lat="44.48793" lon="3.01976">
        <ele>835.5</ele>
        <time>2020-05-25T10:56:47Z</time>
      </trkpt>
      <trkpt lat="44.4878" lon="3.0196">
        <ele>829</ele>
        <time>2020-05-25T10:56:57Z</time>
      </trkpt>
      <trkpt lat="44.4879" lon="3.0194">
        <ele>840.2</ele>
        <time>2020-05-25T10:57:07Z</time>
      </trkpt>
      <trkpt lat="44.48799" lon="3.01938">
        <ele>841</ele>
        <time>2020-05-25T10:57:17Z</time>
      </trkpt>
      <trkpt lat="44.48822" lon="3.01928">
        <ele>856</ele>
        <time>2020-05-25T10:57:27Z</time>
      </trkpt>
      <trkpt lat="44.48833" lon="3.01927">
        <ele>851.3</ele>
        <time>2020-05-25T10:57:37Z</time>
      </trkpt>
      <trkpt lat="44.48846" lon="3.01929">
        <ele>856</ele>
        <time>2020-05-25T10:57:47Z</time>
      </trkpt>
      <trkpt lat="44.48859" lon="3.01936">
        <ele>856.8</ele>
        <time>2020-05-25T10:57:57Z</time>
      </trkpt>
      <trkpt lat="44.48873" lon="3.01946">
        <ele>859</ele>
        <time>2020-05-25T10:58:07Z</time>
      </trkpt>
      <trkpt lat="44.4888" lon="3.01956">
        <ele>859.3</ele>
        <time>2020-05-25T10:58:17Z</time>
      </trkpt>
      <trkpt lat="44.48888" lon="3.01961">
        <ele>860.9</ele>
        <time>2020-05-25T10:58:27Z</time>
      </trkpt>
      <trkpt lat="44.48905" lon="3.01976">
        <ele>865</ele>
        <time>2020-05-25T10:58:37Z</time>
      </trkpt>
      <trkpt lat="44.48924" lon="3.01999">
        <ele>869</ele>
        <time>2020-05-25T10:58:47Z</time>
      </trkpt>
      <trkpt lat="44.48933" lon="3.02012">
        <ele>864.8</ele>
        <time>2020-05-25T10:58:57Z</time>
      </trkpt>
      <trkpt lat="44.48946" lon="3.02018">
        <ele>887</ele>
        <time>2020-05-25T10:59:07Z</time>
      </trkpt>
      <trkpt lat="44.48955" lon="3.02018">
        <ele>872.4</ele>
        <time>2020-05-25T10:59:17Z</time>
      </trkpt>
      <trkpt lat="44.48963" lon="3.02025">
        <ele>873.3</ele>
        <time>2020-05-25T10:59:27Z</time>
      </trkpt>
      <trkpt lat="44.48972" lon="3.02029">
        <ele>887</ele>
        <time>2020-05-25T10:59:37Z</time>
      </trkpt>
      <trkpt lat="44.4898" lon="3.02039">
        <ele>875</ele>
        <time>2020-05-25T10:59:47Z</time>
      </trkpt>
      <trkpt lat="44.48989" lon="3.02045">
        <ele>887</ele>
        <time>2020-05-25T10:59:57Z</time>
      </trkpt>
      <trkpt lat="44.48998" lon="3.02049">
        <ele>878.6</ele>
        <time>2020-05-25T11:00:07Z</time>
      </trkpt>
      <trkpt lat="44.49007" lon="3.02054">
        <ele>880.3</ele>
        <time>2020-05-25T11:00:17Z</time>
      </trkpt>
      <trkpt lat="44.49015" lon="3.02063">
        <ele>887</ele>
        <time>2020-05-25T11:00:27Z</time>
      </trkpt>
      <trkpt lat="44.49021" lon="3.02074">
        <ele>878.7</ele>
        <time>2020-05-25T11:00:37Z</time>
      </trkpt>
      <trkpt lat="44.49029" lon="3.02083">
        <ele>888</ele>
        <time>2020-05-25T11:00:47Z</time>
      </trkpt>
      <trkpt lat="44.49038" lon="3.0209">
        <ele>880.3</ele>
        <time>2020-05-25T11:00:57Z</time>
      </trkpt>
      <trkpt lat="44.49058" lon="3.02126">
        <ele>885</ele>
        <time>2020-05-25T11:01:07Z</time>
      </trkpt>
      <trkpt lat="44.49068" lon="3.02139">
        <ele>880.3</ele>
        <time>2020-05-25T11:01:17Z</time>
      </trkpt>
      <trkpt lat="44.49084" lon="3.02161">
        <ele>886</ele>
        <time>2020-05-25T11:01:27Z</time>
      </trkpt>
      <trkpt lat="44.49094" lon="3.0217">
        <ele>883.4</ele>
        <time>2020-05-25T11:01:37Z</time>
      </trkpt>
      <trkpt lat="44.49102" lon="3.02176">
        <ele>887</ele>
        <time>2020-05-25T11:01:47Z</time>
      </trkpt>
      <trkpt lat="44.4911" lon="3.02184">
        <ele>886.2</ele>
        <time>2020-05-25T11:01:57Z</time>
      </trkpt>
      <trkpt lat="44.49122" lon="3.0219">
        <ele>887</ele>
        <time>2020-05-25T11:02:07Z</time>
      </trkpt>
      <trkpt lat="44.49131" lon="3.02191">
        <ele>890.7</ele>
        <time>2020-05-25T11:02:17Z</time>
      </trkpt>
      <trkpt lat="44.4914" lon="3.02194">
        <ele>892.4</ele>
        <time>2020-05-25T11:02:27Z</time>
      </trkpt>
      <trkpt lat="44.49153" lon="3.02202">
        <ele>887</ele>
        <time>2020-05-25T11:02:37Z</time>
      </trkpt>
      <trkpt lat="44.49162" lon="3.02204">
        <ele>894.7</ele>
        <time>2020-05-25T11:02:47Z</time>
      </trkpt>
      <trkpt lat="44.49188" lon="3.02215">
        <ele>888</ele>
        <time>2020-05-25T11:02:57Z</time>
      </trkpt>
      <trkpt lat="44.49207" lon="3.02219">
        <ele>892</ele>
        <time>2020-05-25T11:03:07Z</time>
      </trkpt>
      <trkpt lat="44.49228" lon="3.02216">
        <ele>895</ele>
        <time>2020-05-25T11:03:17Z</time>
      </trkpt>
      <trkpt lat="44.49252" lon="3.02209">
        <ele>902</ele>
        <time>2020-05-25T11:03:27Z</time>
      </trkpt>
      <trkpt lat="44.49274" lon="3.02204">
        <ele>902</ele>
        <time>2020-05-25T11:03:37Z</time>
      </trkpt>
      <trkpt lat="44.49284" lon="3.02204">
        <ele>908.8</ele>
        <time>2020-05-25T11:03:47Z</time>
      </trkpt>
      <trkpt lat="44.49305" lon="3.02203">
        <ele>900</ele>
        <time>2020-05-25T11:03:57Z</time>
      </trkpt>
      <trkpt lat="44.49313" lon="3.02197">
        <ele>913.6</ele>
        <time>2020-05-25T11:04:07Z</time>
      </trkpt>
    </trkseg>
  </trk>
</gpx>